Time;durP1;ratioP1;P1;durP2;ratioP2;P2;SDS_P1;SDS_P2;PMS_P1;PMS_P2;Temp;Humidity;BMP_temperature;BMP_pressure;BME280_temperature;BME280_humidity;BME280_pressure;Samples;Min_cycle;Max_cycle;Signal;HPM_P1;HPM_P2
2022/12/07 00:01:07;;;;;;;12.87;7.10;;;4.50;99.90;;;;;;5061516;28;20203;-66
2022/12/07 00:03:35;;;;;;;15.20;6.97;;;4.50;99.90;;;;;;5036849;28;20239;-66
2022/12/07 00:06:02;;;;;;;15.40;7.07;;;4.40;99.90;;;;;;5059984;28;20196;-66
2022/12/07 00:08:30;;;;;;;14.13;7.00;;;4.40;99.90;;;;;;5061567;28;20227;-64
2022/12/07 00:11:08;;;;;;;13.80;6.37;;;4.40;99.90;;;;;;5060048;28;20231;-65
2022/12/07 00:13:36;;;;;;;13.73;6.10;;;4.40;99.90;;;;;;5056614;28;20338;-65
2022/12/07 00:16:05;;;;;;;14.40;6.07;;;4.40;99.90;;;;;;5060552;28;20629;-66
2022/12/07 00:18:33;;;;;;;10.83;5.10;;;4.40;99.90;;;;;;5057668;28;20278;-66
2022/12/07 00:21:07;;;;;;;16.87;6.10;;;4.40;99.90;;;;;;5063818;28;20195;-66
2022/12/07 00:23:34;;;;;;;11.50;5.80;;;4.40;99.90;;;;;;5068165;28;20196;-66
2022/12/07 00:26:09;;;;;;;9.23;5.87;;;4.40;99.90;;;;;;5063632;28;20235;-66
2022/12/07 00:28:37;;;;;;;15.77;6.17;;;4.40;99.90;;;;;;5045356;28;20644;-66
2022/12/07 00:31:09;;;;;;;12.40;7.33;;;4.40;99.90;;;;;;5063141;28;20262;-66
2022/12/07 00:33:36;;;;;;;13.17;6.97;;;4.40;99.90;;;;;;5061568;28;20192;-66
2022/12/07 00:36:06;;;;;;;10.50;5.77;;;4.30;99.90;;;;;;5059469;28;20564;-66
2022/12/07 00:38:34;;;;;;;11.13;5.27;;;4.30;99.90;;;;;;5057996;28;20708;-66
2022/12/07 00:41:04;;;;;;;11.57;4.27;;;4.30;99.90;;;;;;5062668;28;20205;-66
2022/12/07 00:43:31;;;;;;;8.20;4.17;;;4.20;99.90;;;;;;5066355;28;20216;-66
2022/12/07 00:46:04;;;;;;;13.00;4.27;;;4.20;99.90;;;;;;5065292;28;20287;-66
2022/12/07 00:48:31;;;;;;;14.13;4.70;;;4.30;99.90;;;;;;5068557;28;20336;-65
2022/12/07 00:50:58;;;;;;;10.40;4.00;;;4.20;99.90;;;;;;5063789;28;20259;-66
2022/12/07 00:53:26;;;;;;;12.90;4.27;;;4.20;99.90;;;;;;5059533;28;20556;-66
2022/12/07 00:55:53;;;;;;;13.83;4.13;;;4.20;99.90;;;;;;5062451;28;20201;-66
2022/12/07 00:58:20;;;;;;;6.63;3.60;;;4.20;99.90;;;;;;5061562;28;20226;-66
2022/12/07 01:00:47;;;;;;;14.37;3.90;;;4.20;99.90;;;;;;5064898;28;20313;-66
2022/12/07 01:03:15;;;;;;;10.77;3.63;;;4.20;99.90;;;;;;5058108;28;20233;-66
2022/12/07 01:05:53;;;;;;;9.43;3.30;;;4.10;99.90;;;;;;5064263;28;20777;-66
2022/12/07 01:08:20;;;;;;;9.40;3.50;;;4.10;99.90;;;;;;5059339;28;20204;-66
2022/12/07 01:10:47;;;;;;;9.20;3.80;;;4.10;99.90;;;;;;5065933;28;20323;-66
2022/12/07 01:13:15;;;;;;;12.83;4.43;;;4.10;99.90;;;;;;5067673;28;20862;-66
2022/12/07 01:15:44;;;;;;;9.97;4.30;;;4.10;99.90;;;;;;5059308;28;20206;-66
2022/12/07 01:18:11;;;;;;;7.73;3.30;;;4.10;99.90;;;;;;5064627;28;20649;-66
2022/12/07 01:20:37;;;;;;;8.77;3.53;;;4.00;99.90;;;;;;5060439;28;20196;-66
2022/12/07 01:23:04;;;;;;;9.17;3.30;;;4.00;99.90;;;;;;5058749;28;20200;-66
2022/12/07 01:25:31;;;;;;;13.03;3.20;;;4.00;99.90;;;;;;5064857;28;20239;-66
2022/12/07 01:27:57;;;;;;;11.93;3.30;;;4.00;99.90;;;;;;5062947;28;20204;-66
2022/12/07 01:30:24;;;;;;;7.17;2.87;;;4.00;99.90;;;;;;5066048;28;20230;-66
2022/12/07 01:32:51;;;;;;;9.03;3.20;;;4.00;99.90;;;;;;5057224;28;20653;-67
2022/12/07 01:35:18;;;;;;;8.70;3.53;;;4.00;99.90;;;;;;5063721;28;20565;-66
2022/12/07 01:37:44;;;;;;;11.57;3.07;;;4.00;99.90;;;;;;5057113;28;20205;-66
2022/12/07 01:40:11;;;;;;;6.97;3.27;;;4.00;99.90;;;;;;5057931;28;20693;-66
2022/12/07 01:42:38;;;;;;;9.33;2.90;;;4.00;99.90;;;;;;5038477;28;20308;-66
2022/12/07 01:45:37;;;;;;;13.77;3.57;;;4.00;99.90;;;;;;5062698;28;20556;-67
2022/12/07 01:48:06;;;;;;;9.23;3.63;;;4.10;99.90;;;;;;5053278;28;20217;-66
2022/12/07 01:50:34;;;;;;;13.33;4.57;;;4.10;99.90;;;;;;5050086;28;20284;-66
2022/12/07 01:53:05;;;;;;;11.03;3.30;;;4.00;99.90;;;;;;5048374;28;20311;-66
2022/12/07 01:55:32;;;;;;;7.47;3.03;;;4.00;99.90;;;;;;5062856;28;20200;-67
2022/12/07 01:57:58;;;;;;;10.03;3.43;;;4.00;99.90;;;;;;5060944;28;20221;-67
2022/12/07 02:00:25;;;;;;;9.37;2.97;;;4.00;99.90;;;;;;5065325;28;20221;-66
2022/12/07 02:03:03;;;;;;;9.20;2.83;;;4.10;99.90;;;;;;5066605;28;20196;-66
2022/12/07 02:05:32;;;;;;;8.50;2.70;;;4.10;99.90;;;;;;5062813;28;20603;-67
2022/12/07 02:08:02;;;;;;;4.10;2.70;;;4.10;99.90;;;;;;5066629;28;20329;-68
2022/12/07 02:10:31;;;;;;;8.13;3.10;;;4.10;99.90;;;;;;5065441;28;20232;-65
2022/12/07 02:13:20;;;;;;;9.63;2.97;;;4.10;99.90;;;;;;5061528;28;20307;-67
2022/12/07 02:16:05;;;;;;;5.43;2.50;;;4.10;99.90;;;;;;5058695;28;20211;-66
2022/12/07 02:18:40;;;;;;;11.77;2.80;;;4.20;99.90;;;;;;5059720;28;20235;-66
2022/12/07 02:21:25;;;;;;;8.67;2.97;;;4.20;99.90;;;;;;5063881;28;20205;-66
2022/12/07 02:24:18;;;;;;;8.87;2.57;;;4.20;99.90;;;;;;5060284;28;20295;-66
2022/12/07 02:27:04;;;;;;;13.13;2.37;;;4.10;99.90;;;;;;5057813;28;20212;-66
2022/12/07 02:29:40;;;;;;;7.97;2.87;;;4.10;99.90;;;;;;5063849;28;20197;-66
2022/12/07 02:32:10;;;;;;;7.57;2.93;;;4.10;99.90;;;;;;5058948;28;20204;-66
2022/12/07 02:35:02;;;;;;;6.40;2.30;;;4.00;99.90;;;;;;5057211;28;20201;-66
2022/12/07 02:37:51;;;;;;;6.43;2.70;;;4.00;99.90;;;;;;5045372;28;20562;-66
2022/12/07 02:40:40;;;;;;;6.27;2.83;;;4.00;99.90;;;;;;5042076;28;20288;-66
2022/12/07 02:43:35;;;;;;;12.97;3.00;;;4.00;99.90;;;;;;5048043;28;20223;-66
2022/12/07 02:46:11;;;;;;;13.73;3.43;;;4.00;99.90;;;;;;5035488;28;20204;-67
2022/12/07 02:48:41;;;;;;;7.13;2.70;;;4.00;99.90;;;;;;5060555;28;20243;-66
2022/12/07 02:51:07;;;;;;;6.00;2.40;;;4.00;99.90;;;;;;5052978;28;20635;-66
2022/12/07 02:53:40;;;;;;;12.73;2.80;;;4.00;99.90;;;;;;5047063;28;20213;-67
2022/12/07 02:56:24;;;;;;;8.97;2.90;;;4.00;99.90;;;;;;5064625;28;20292;-66
2022/12/07 02:59:18;;;;;;;5.97;2.90;;;4.10;99.90;;;;;;5056944;28;20236;-66
2022/12/07 03:02:06;;;;;;;6.63;2.80;;;4.10;99.90;;;;;;5060992;28;20235;-67
2022/12/07 03:04:45;;;;;;;12.10;2.93;;;4.10;99.90;;;;;;5057181;28;20232;-65
2022/12/07 03:07:18;;;;;;;18.70;3.43;;;4.20;99.90;;;;;;5054619;28;20224;-65
2022/12/07 03:09:50;;;;;;;10.20;2.53;;;4.20;99.90;;;;;;5061227;28;20254;-66
2022/12/07 03:12:25;;;;;;;14.07;2.83;;;4.20;99.90;;;;;;5043484;28;20222;-66
2022/12/07 03:15:14;;;;;;;7.70;2.50;;;4.20;99.90;;;;;;5061055;28;20649;-66
2022/12/07 03:17:44;;;;;;;10.23;2.53;;;4.20;99.90;;;;;;5059823;28;20204;-66
2022/12/07 03:20:15;;;;;;;10.10;2.57;;;4.30;99.90;;;;;;5052380;28;20225;-66
2022/12/07 03:22:44;;;;;;;16.50;4.03;;;4.30;99.90;;;;;;5061163;28;20206;-67
2022/12/07 03:25:13;;;;;;;11.03;2.53;;;4.40;99.90;;;;;;5063006;28;20287;-65
2022/12/07 03:28:01;;;;;;;7.20;2.60;;;4.40;99.90;;;;;;5058569;28;20222;-65
2022/12/07 03:30:37;;;;;;;9.73;2.73;;;4.40;99.90;;;;;;5063075;28;20295;-68
2022/12/07 03:33:13;;;;;;;10.17;2.57;;;4.50;99.90;;;;;;5057728;28;20296;-66
2022/12/07 03:35:45;;;;;;;9.50;2.97;;;4.50;99.90;;;;;;5059866;28;20201;-66
2022/12/07 03:38:40;;;;;;;6.33;2.57;;;4.40;99.90;;;;;;5060029;28;20562;-67
2022/12/07 03:41:39;;;;;;;8.63;2.30;;;4.40;99.90;;;;;;5051458;28;20239;-66
2022/12/07 03:44:12;;;;;;;7.37;2.47;;;4.40;99.90;;;;;;5047610;28;20262;-68
2022/12/07 03:46:39;;;;;;;7.57;1.93;;;4.30;99.90;;;;;;5062933;28;20238;-66
2022/12/07 03:49:09;;;;;;;9.60;2.47;;;4.30;99.90;;;;;;5062081;28;20208;-67
2022/12/07 03:51:45;;;;;;;12.60;3.87;;;4.20;99.90;;;;;;5065032;28;20200;-68
2022/12/07 03:55:00;;;;;;;8.90;2.60;;;4.20;99.90;;;;;;5062309;28;20633;-65
2022/12/07 03:57:29;;;;;;;9.77;2.83;;;4.10;99.90;;;;;;5048251;28;20209;-67
2022/12/07 03:59:57;;;;;;;16.63;3.40;;;4.10;99.90;;;;;;5047134;28;20803;-66
2022/12/07 04:02:26;;;;;;;14.03;3.53;;;4.00;99.90;;;;;;5057072;28;20212;-65
2022/12/07 04:04:53;;;;;;;13.43;3.77;;;4.00;99.90;;;;;;5058003;28;20641;-65
2022/12/07 04:07:19;;;;;;;9.97;3.73;;;4.00;99.90;;;;;;5063291;28;20196;-65
2022/12/07 04:09:46;;;;;;;10.80;3.27;;;4.10;99.90;;;;;;5058533;28;20620;-65
2022/12/07 04:12:13;;;;;;;8.57;2.90;;;4.10;99.90;;;;;;5041025;28;20305;-65
2022/12/07 04:14:40;;;;;;;9.73;3.20;;;4.10;99.90;;;;;;5060880;28;20201;-66
2022/12/07 04:17:06;;;;;;;9.33;2.10;;;4.20;99.90;;;;;;5058116;28;20717;-66
2022/12/07 04:19:34;;;;;;;14.00;2.63;;;4.20;99.90;;;;;;5054832;28;20316;-66
2022/12/07 04:22:02;;;;;;;8.67;2.57;;;4.20;99.90;;;;;;5061628;28;20201;-66
2022/12/07 04:24:29;;;;;;;9.57;2.60;;;4.20;99.90;;;;;;5060754;28;20238;-66
2022/12/07 04:26:56;;;;;;;36.33;6.70;;;4.10;99.90;;;;;;5061447;28;20715;-65
2022/12/07 04:29:23;;;;;;;16.50;5.23;;;4.10;99.90;;;;;;5044208;28;20196;-66
2022/12/07 04:31:51;;;;;;;22.13;5.67;;;4.00;99.90;;;;;;5059267;28;20298;-66
2022/12/07 04:34:18;;;;;;;17.00;5.53;;;4.00;99.90;;;;;;5057818;28;20685;-66
2022/12/07 04:36:46;;;;;;;18.20;4.40;;;3.90;99.90;;;;;;5059902;28;20299;-66
2022/12/07 04:39:19;;;;;;;15.40;3.40;;;3.80;99.90;;;;;;5054057;28;20229;-66
2022/12/07 04:41:45;;;;;;;11.63;2.40;;;3.80;99.90;;;;;;5054081;28;20320;-65
2022/12/07 04:44:14;;;;;;;8.70;2.20;;;3.80;99.90;;;;;;5060570;28;20307;-66
2022/12/07 04:46:41;;;;;;;10.63;2.13;;;3.80;99.90;;;;;;5057033;28;20299;-66
2022/12/07 04:49:09;;;;;;;15.40;2.83;;;3.80;99.90;;;;;;5064264;28;20200;-66
2022/12/07 04:51:35;;;;;;;6.53;1.80;;;3.80;99.90;;;;;;5063175;28;20200;-66
2022/12/07 04:54:03;;;;;;;7.83;2.00;;;3.80;99.90;;;;;;5061246;28;20660;-66
2022/12/07 04:56:29;;;;;;;6.00;1.93;;;3.80;99.90;;;;;;5054063;28;20228;-66
2022/12/07 04:58:56;;;;;;;10.17;2.20;;;3.80;99.90;;;;;;5054961;28;20200;-66
2022/12/07 05:01:23;;;;;;;8.50;1.83;;;3.80;99.90;;;;;;5040459;28;20201;-66
2022/12/07 05:03:50;;;;;;;7.97;2.10;;;3.80;99.90;;;;;;5063574;28;20208;-66
2022/12/07 05:06:17;;;;;;;5.00;2.13;;;3.80;99.90;;;;;;5062588;28;20199;-66
2022/12/07 05:08:44;;;;;;;5.73;1.90;;;3.80;99.90;;;;;;5060471;28;20209;-66
2022/12/07 05:11:37;;;;;;;8.43;1.93;;;3.80;99.90;;;;;;5062095;28;20192;-66
2022/12/07 05:14:03;;;;;;;6.80;2.10;;;3.80;99.90;;;;;;5065690;28;21040;-66
2022/12/07 05:16:30;;;;;;;9.40;2.40;;;3.70;99.90;;;;;;5064646;28;20307;-65
2022/12/07 05:18:57;;;;;;;9.77;2.00;;;3.70;99.90;;;;;;5057820;28;20208;-66
2022/12/07 05:21:24;;;;;;;11.73;2.30;;;3.70;99.90;;;;;;5062347;28;20616;-67
2022/12/07 05:23:51;;;;;;;4.37;2.30;;;3.70;99.90;;;;;;5060692;28;20196;-66
2022/12/07 05:26:18;;;;;;;10.07;2.30;;;3.70;99.90;;;;;;5065829;28;20295;-65
2022/12/07 05:28:45;;;;;;;9.37;2.53;;;3.80;99.90;;;;;;5054628;28;20617;-66
2022/12/07 05:31:12;;;;;;;11.33;2.53;;;3.80;99.90;;;;;;5061679;28;20200;-66
2022/12/07 05:33:38;;;;;;;7.07;2.40;;;3.80;99.90;;;;;;5064492;28;20218;-66
2022/12/07 05:36:07;;;;;;;4.40;1.90;;;3.90;99.90;;;;;;5060362;28;20193;-65
2022/12/07 05:38:33;;;;;;;11.47;2.07;;;3.90;99.90;;;;;;5060638;28;20319;-66
2022/12/07 05:41:05;;;;;;;4.70;2.10;;;3.90;99.90;;;;;;5049805;28;20250;-68
2022/12/07 05:43:32;;;;;;;12.57;3.37;;;3.90;99.90;;;;;;5063778;28;20661;-67
2022/12/07 05:45:59;;;;;;;6.93;2.40;;;3.90;99.90;;;;;;5062891;28;20208;-66
2022/12/07 05:48:26;;;;;;;9.63;2.27;;;3.90;99.90;;;;;;5052854;28;20196;-67
2022/12/07 05:50:53;;;;;;;8.33;2.00;;;3.90;99.90;;;;;;5067479;28;20712;-66
2022/12/07 05:53:20;;;;;;;11.13;2.30;;;3.90;99.90;;;;;;5024561;28;20291;-66
2022/12/07 05:55:49;;;;;;;12.60;2.20;;;4.00;99.90;;;;;;5064919;28;20211;-66
2022/12/07 06:01:01;;;;;;;4.33;1.97;;;4.00;99.90;;;;;;5060623;28;20716;-66
2022/12/07 06:03:28;;;;;;;6.70;2.10;;;4.00;99.90;;;;;;5047842;28;20201;-66
2022/12/07 06:05:54;;;;;;;6.57;2.23;;;4.00;99.90;;;;;;5063390;28;20259;-66
2022/12/07 06:08:21;;;;;;;4.33;2.20;;;4.00;99.90;;;;;;5060164;28;20205;-66
2022/12/07 06:12:33;;;;;;;6.17;2.20;;;3.90;99.90;;;;;;5063813;28;20236;-66
2022/12/07 06:13:35;;;;;;;5.27;1.73;;;3.90;99.90;;;;;;5060886;28;20216;-66
2022/12/07 06:16:02;;;;;;;10.23;1.90;;;3.90;99.90;;;;;;5065371;28;20592;-66
2022/12/07 06:18:29;;;;;;;8.77;2.27;;;3.80;99.90;;;;;;5066253;28;20287;-66
2022/12/07 06:20:55;;;;;;;13.47;3.20;;;3.80;99.90;;;;;;5042051;28;20606;-65
2022/12/07 06:23:22;;;;;;;8.90;1.73;;;3.70;99.90;;;;;;5060221;28;20283;-66
2022/12/07 06:25:49;;;;;;;11.57;2.30;;;3.70;99.90;;;;;;5055507;28;20601;-66
2022/12/07 06:28:16;;;;;;;10.47;2.73;;;3.60;99.90;;;;;;5060402;28;20617;-66
2022/12/07 06:30:42;;;;;;;7.40;2.20;;;3.60;99.90;;;;;;5057507;28;20959;-65
2022/12/07 06:33:09;;;;;;;8.97;2.50;;;3.50;99.90;;;;;;5064317;28;20200;-65
2022/12/07 06:35:36;;;;;;;9.10;2.40;;;3.50;99.90;;;;;;5062962;28;20268;-66
2022/12/07 06:38:03;;;;;;;8.47;2.07;;;3.50;99.90;;;;;;5059133;28;20387;-65
2022/12/07 06:40:29;;;;;;;10.20;2.13;;;3.40;99.90;;;;;;5057675;28;20226;-66
2022/12/07 06:42:56;;;;;;;7.63;1.83;;;3.40;99.90;;;;;;5054178;28;20229;-66
2022/12/07 06:45:23;;;;;;;11.80;2.40;;;3.40;99.90;;;;;;5064739;28;20203;-66
2022/12/07 06:47:49;;;;;;;8.53;2.50;;;3.40;99.90;;;;;;5056619;28;20295;-66
2022/12/07 06:50:17;;;;;;;6.43;2.07;;;3.30;99.90;;;;;;5064997;28;20213;-66
2022/12/07 06:52:43;;;;;;;7.80;2.23;;;3.30;99.90;;;;;;5057700;28;20203;-66
2022/12/07 06:55:10;;;;;;;10.77;2.87;;;3.30;99.90;;;;;;5061426;28;20287;-66
2022/12/07 06:57:37;;;;;;;9.57;2.37;;;3.30;99.90;;;;;;5062562;28;20222;-66
2022/12/07 07:00:04;;;;;;;13.40;2.73;;;3.30;99.90;;;;;;5064631;28;20723;-67
2022/12/07 07:02:31;;;;;;;7.43;2.13;;;3.30;99.90;;;;;;5062605;28;20232;-66
2022/12/07 07:04:58;;;;;;;10.93;2.13;;;3.20;99.90;;;;;;5060662;28;20208;-67
2022/12/07 07:07:25;;;;;;;8.60;1.90;;;3.30;99.90;;;;;;5040288;28;20215;-66
2022/12/07 07:09:52;;;;;;;9.73;2.03;;;3.20;99.90;;;;;;5058773;28;20241;-66
2022/12/07 07:12:18;;;;;;;9.97;3.13;;;3.20;99.90;;;;;;5059626;28;20230;-66
2022/12/07 07:14:45;;;;;;;7.70;3.00;;;3.20;99.90;;;;;;5038698;28;20605;-66
2022/12/07 07:17:12;;;;;;;8.90;2.57;;;3.20;99.90;;;;;;5054292;28;20314;-66
2022/12/07 07:19:41;;;;;;;9.67;2.60;;;3.20;99.90;;;;;;5057433;28;20307;-66
2022/12/07 07:22:08;;;;;;;8.87;2.90;;;3.10;99.90;;;;;;5062019;28;20252;-66
2022/12/07 07:24:35;;;;;;;6.93;3.00;;;3.10;99.90;;;;;;5059282;28;20218;-66
2022/12/07 07:27:02;;;;;;;14.50;2.90;;;3.10;99.90;;;;;;5060036;28;20336;-67
2022/12/07 07:29:28;;;;;;;7.77;2.77;;;3.10;99.90;;;;;;5062684;28;20232;-67
2022/12/07 07:31:55;;;;;;;12.43;2.67;;;3.10;99.90;;;;;;5057051;28;20294;-67
2022/12/07 07:34:27;;;;;;;10.87;3.97;;;3.10;99.90;;;;;;5061287;28;20215;-67
2022/12/07 07:36:54;;;;;;;6.33;3.00;;;3.10;99.90;;;;;;5056930;28;20611;-66
2022/12/07 07:39:20;;;;;;;11.93;3.40;;;3.10;99.90;;;;;;5058573;28;20293;-67
2022/12/07 07:41:47;;;;;;;9.83;4.33;;;3.20;99.90;;;;;;5056379;28;20238;-68
2022/12/07 07:44:14;;;;;;;8.23;3.23;;;;;;;;;;5041652;28;20236;-67
2022/12/07 07:46:41;;;;;;;5.90;2.70;;;3.30;99.90;;;;;;5056146;28;20201;-67
2022/12/07 07:49:10;;;;;;;5.03;2.77;;;3.40;99.90;;;;;;5056840;28;20197;-67
2022/12/07 07:51:39;;;;;;;8.93;3.50;;;3.40;99.90;;;;;;5057204;28;20222;-67
2022/12/07 07:54:06;;;;;;;9.77;3.70;;;3.50;99.90;;;;;;5061608;28;20712;-67
2022/12/07 07:56:37;;;;;;;11.37;2.97;;;3.60;99.90;;;;;;5062347;28;20216;-67
2022/12/07 07:59:03;;;;;;;7.93;2.83;;;3.70;99.90;;;;;;5056844;28;20279;-67
2022/12/07 08:01:30;;;;;;;7.73;2.37;;;3.70;99.90;;;;;;5052272;28;20225;-67
2022/12/07 08:03:57;;;;;;;8.80;2.90;;;3.80;99.90;;;;;;5041995;28;20193;-65
2022/12/07 08:06:24;;;;;;;6.83;2.60;;;3.80;99.90;;;;;;5058122;28;20205;-65
2022/12/07 08:08:58;;;;;;;7.80;2.80;;;3.90;99.90;;;;;;5045599;28;20627;-66
2022/12/07 08:11:25;;;;;;;6.60;2.73;;;3.90;99.90;;;;;;5056467;28;20612;-66
2022/12/07 08:13:52;;;;;;;11.90;3.00;;;3.90;99.90;;;;;;5060310;28;20733;-66
2022/12/07 08:16:19;;;;;;;13.00;2.60;;;4.00;99.90;;;;;;5059146;28;20323;-67
2022/12/07 08:18:46;;;;;;;8.80;2.77;;;4.00;99.90;;;;;;5064329;28;20221;-66
2022/12/07 08:21:14;;;;;;;6.77;2.67;;;3.90;99.90;;;;;;5045437;28;20241;-67
2022/12/07 08:23:41;;;;;;;9.30;2.60;;;3.90;99.90;;;;;;5059882;28;20201;-67
2022/12/07 08:26:11;;;;;;;6.97;3.03;;;3.90;99.90;;;;;;5062720;28;20200;-66
2022/12/07 08:28:39;;;;;;;7.13;3.03;;;4.00;99.90;;;;;;5057919;28;20846;-67
2022/12/07 08:31:12;;;;;;;6.20;2.57;;;4.00;99.90;;;;;;5061225;28;20257;-66
2022/12/07 08:33:40;;;;;;;7.97;2.60;;;4.00;99.90;;;;;;5046203;28;20191;-67
2022/12/07 08:36:09;;;;;;;8.53;2.83;;;4.10;99.90;;;;;;5057848;28;20300;-66
2022/12/07 08:38:38;;;;;;;7.80;2.70;;;4.10;99.90;;;;;;5050607;28;20295;-66
2022/12/07 08:41:05;;;;;;;11.70;2.63;;;4.20;99.90;;;;;;5062397;28;20302;-65
2022/12/07 08:43:33;;;;;;;7.40;3.10;;;4.30;99.90;;;;;;5066723;28;20334;-67
2022/12/07 08:46:14;;;;;;;7.43;2.77;;;4.40;99.90;;;;;;5064649;28;20248;-67
2022/12/07 08:48:51;;;;;;;7.57;3.30;;;4.50;99.90;;;;;;5064713;28;20211;-67
2022/12/07 08:51:19;;;;;;;6.53;3.60;;;4.50;99.90;;;;;;5064724;28;20204;-66
2022/12/07 08:53:46;;;;;;;5.23;2.43;;;4.50;99.90;;;;;;5064928;28;20241;-68
2022/12/07 08:56:13;;;;;;;9.60;2.70;;;4.60;99.90;;;;;;5058374;28;20655;-66
2022/12/07 08:58:41;;;;;;;5.80;2.20;;;4.60;99.90;;;;;;5063023;28;20200;-68
2022/12/07 09:01:07;;;;;;;8.83;2.20;;;4.60;99.90;;;;;;5059035;28;20525;-68
2022/12/07 09:03:34;;;;;;;7.83;3.00;;;4.60;99.90;;;;;;5051347;28;20288;-67
2022/12/07 09:06:01;;;;;;;4.10;2.00;;;4.50;99.90;;;;;;5060383;28;20236;-66
2022/12/07 09:08:33;;;;;;;7.27;2.33;;;4.50;99.90;;;;;;5066842;28;20208;-67
2022/12/07 09:11:00;;;;;;;8.67;3.10;;;4.50;99.90;;;;;;5061862;28;20233;-67
2022/12/07 09:13:27;;;;;;;11.57;3.77;;;4.50;99.90;;;;;;5063216;28;20310;-66
2022/12/07 09:15:54;;;;;;;8.90;2.63;;;4.50;99.90;;;;;;5062921;28;20426;-66
2022/12/07 09:18:20;;;;;;;9.60;2.50;;;4.50;99.90;;;;;;5063358;28;20296;-66
2022/12/07 09:20:47;;;;;;;9.30;2.60;;;4.60;99.90;;;;;;5058365;28;20230;-66
2022/12/07 09:23:14;;;;;;;9.00;2.63;;;4.60;99.90;;;;;;5062111;28;20219;-66
2022/12/07 09:25:41;;;;;;;6.27;2.27;;;4.60;99.90;;;;;;5065361;28;20292;-66
2022/12/07 09:28:08;;;;;;;11.40;2.37;;;4.60;99.90;;;;;;5060636;28;20324;-67
2022/12/07 09:30:35;;;;;;;5.23;3.13;;;4.70;99.90;;;;;;5065148;28;20201;-66
2022/12/07 09:33:22;;;;;;;9.30;2.93;;;4.70;99.90;;;;;;5064919;28;20217;-67
2022/12/07 09:35:50;;;;;;;11.50;3.03;;;4.60;99.90;;;;;;5048080;28;20207;-66
2022/12/07 09:38:18;;;;;;;6.53;2.77;;;4.60;99.90;;;;;;5045681;28;20650;-66
2022/12/07 09:40:46;;;;;;;7.30;2.90;;;4.60;99.90;;;;;;5057488;28;20701;-66
2022/12/07 09:43:20;;;;;;;13.30;2.83;;;4.60;99.90;;;;;;5062013;28;20214;-65
2022/12/07 09:45:49;;;;;;;13.57;3.70;;;4.70;99.90;;;;;;5065601;28;20210;-66
2022/12/07 09:48:31;;;;;;;9.47;2.83;;;4.70;99.90;;;;;;5064319;28;20238;-65
2022/12/07 09:51:00;;;;;;;7.23;2.43;;;4.70;99.90;;;;;;5063094;28;20290;-65
2022/12/07 09:53:33;;;;;;;11.43;3.13;;;4.70;99.90;;;;;;5064974;28;20195;-66
2022/12/07 09:56:01;;;;;;;13.07;3.00;;;4.80;99.90;;;;;;5061223;28;20651;-66
2022/12/07 09:58:30;;;;;;;8.70;2.50;;;4.80;99.90;;;;;;5060711;28;20214;-66
2022/12/07 10:01:07;;;;;;;7.20;2.47;;;4.90;99.90;;;;;;5054677;28;20224;-67
2022/12/07 10:03:37;;;;;;;9.67;2.17;;;5.10;99.90;;;;;;5064092;28;20228;-66
2022/12/07 10:06:06;;;;;;;15.47;2.57;;;5.30;99.90;;;;;;5062051;28;20292;-66
2022/12/07 10:08:33;;;;;;;6.80;2.50;;;5.40;99.90;;;;;;5044066;28;20661;-66
2022/12/07 10:11:03;;;;;;;8.47;1.93;;;5.50;99.90;;;;;;5058672;28;20229;-66
2022/12/07 10:13:42;;;;;;;9.00;2.20;;;5.70;99.90;;;;;;5044690;28;20224;-67
2022/12/07 10:16:24;;;;;;;7.40;1.90;;;5.80;99.90;;;;;;5063058;28;20233;-67
2022/12/07 10:18:52;;;;;;;11.53;2.43;;;5.70;99.90;;;;;;5060030;28;20672;-66
2022/12/07 10:21:23;;;;;;;4.37;1.80;;;5.80;99.90;;;;;;5061760;28;20234;-67
2022/12/07 10:24:05;;;;;;;12.70;2.40;;;5.80;99.90;;;;;;5061909;28;20233;-66
2022/12/07 10:26:45;;;;;;;7.47;1.93;;;5.70;99.90;;;;;;5063817;28;20228;-67
2022/12/07 10:29:38;;;;;;;9.60;2.37;;;5.70;99.90;;;;;;5058603;28;20676;-67
2022/12/07 10:32:26;;;;;;;8.13;2.27;;;5.70;99.90;;;;;;5058615;28;20200;-67
2022/12/07 10:35:24;;;;;;;7.97;4.00;;;5.70;99.90;;;;;;5057583;28;20202;-66
2022/12/07 10:37:53;;;;;;;6.40;2.97;;;5.80;99.90;;;;;;5058710;28;20741;-66
2022/12/07 10:40:33;;;;;;;6.53;2.13;;;6.00;99.90;;;;;;5059743;28;20194;-66
2022/12/07 10:43:06;;;;;;;5.60;1.87;;;6.10;99.90;;;;;;5061360;28;20252;-66
2022/12/07 10:45:34;;;;;;;8.17;2.00;;;6.20;99.90;;;;;;5054145;28;20215;-65
2022/12/07 10:48:22;;;;;;;9.90;2.13;;;6.20;99.90;;;;;;5059342;28;20211;-66
2022/12/07 10:51:06;;;;;;;6.23;2.23;;;6.20;99.90;;;;;;5055693;28;20233;-67
2022/12/07 10:54:03;;;;;;;7.33;2.07;;;6.10;99.90;;;;;;5060011;28;20197;-67
2022/12/07 10:56:50;;;;;;;8.67;2.90;;;6.10;99.90;;;;;;5055975;28;20316;-69
2022/12/07 10:59:47;;;;;;;8.97;3.10;;;6.00;99.90;;;;;;5057175;28;20204;-67
2022/12/07 11:02:34;;;;;;;7.00;1.90;;;6.00;99.90;;;;;;5058391;28;20234;-67
2022/12/07 11:05:16;;;;;;;3.37;1.80;;;6.00;99.90;;;;;;5058335;28;20726;-66
2022/12/07 11:07:43;;;;;;;8.07;2.13;;;5.90;99.90;;;;;;5043078;28;20364;-66
2022/12/07 11:10:29;;;;;;;7.27;2.33;;;5.80;99.90;;;;;;5044665;28;20230;-66
2022/12/07 11:12:58;;;;;;;6.30;2.80;;;5.80;99.90;;;;;;5056154;28;20224;-67
2022/12/07 11:15:35;;;;;;;10.87;2.83;;;5.80;99.90;;;;;;5046192;28;20289;-66
2022/12/07 11:18:06;;;;;;;9.67;1.93;;;5.70;99.90;;;;;;5058090;28;20211;-67
2022/12/07 11:20:38;;;;;;;7.50;2.20;;;5.70;99.90;;;;;;5055777;28;20207;-66
2022/12/07 11:23:30;;;;;;;9.40;2.40;;;5.70;99.90;;;;;;5060865;28;20557;-66
2022/12/07 11:26:19;;;;;;;12.67;2.70;;;5.80;99.90;;;;;;5059193;28;20209;-66
2022/12/07 11:29:27;;;;;;;10.53;3.53;;;5.80;99.90;;;;;;5063487;28;20601;-66
2022/12/07 11:32:22;;;;;;;6.43;2.40;;;5.80;99.90;;;;;;5021308;28;20207;-66
2022/12/07 11:35:08;;;;;;;19.27;3.00;;;5.80;99.90;;;;;;5032406;28;20341;-66
2022/12/07 11:37:37;;;;;;;7.67;2.77;;;5.90;99.90;;;;;;5057714;28;20221;-67
2022/12/07 11:40:16;;;;;;;7.57;2.87;;;5.90;99.90;;;;;;5061636;28;20206;-66
2022/12/07 11:43:01;;;;;;;11.40;2.37;;;6.00;99.90;;;;;;5062354;28;20306;-67
2022/12/07 11:45:37;;;;;;;8.10;2.50;;;6.10;99.90;;;;;;5044914;28;20194;-67
2022/12/07 11:48:22;;;;;;;5.57;2.23;;;6.10;99.90;;;;;;5062370;28;20208;-67
2022/12/07 11:50:58;;;;;;;9.73;2.10;;;6.10;99.90;;;;;;5061631;28;20667;-66
2022/12/07 11:53:57;;;;;;;7.27;3.23;;;6.10;99.90;;;;;;5059024;28;20207;-66
2022/12/07 11:56:26;;;;;;;9.13;2.00;;;6.10;99.90;;;;;;5061975;28;20224;-67
2022/12/07 11:58:59;;;;;;;5.73;2.23;;;6.20;99.90;;;;;;5058328;28;20210;-66
2022/12/07 12:01:34;;;;;;;6.07;2.00;;;6.30;99.90;;;;;;5055882;28;20312;-67
2022/12/07 12:04:10;;;;;;;5.60;2.10;;;6.40;99.90;;;;;;5057673;28;20219;-66
2022/12/07 12:06:38;;;;;;;8.83;3.10;;;6.60;99.90;;;;;;5061230;28;20635;-68
2022/12/07 12:09:13;;;;;;;11.27;2.60;;;6.80;99.90;;;;;;5059212;28;20325;-66
2022/12/07 12:12:09;;;;;;;7.83;1.73;;;7.00;99.90;;;;;;5057843;28;20220;-67
2022/12/07 12:15:29;;;;;;;6.50;1.80;;;7.10;99.90;;;;;;5059181;28;20204;-66
2022/12/07 12:18:12;;;;;;;12.63;2.10;;;7.20;99.90;;;;;;5060443;28;20206;-67
2022/12/07 12:20:57;;;;;;;7.60;1.90;;;7.20;99.90;;;;;;5057071;28;20200;-65
2022/12/07 12:23:51;;;;;;;4.20;1.50;;;7.30;99.90;;;;;;5060599;28;20212;-66
2022/12/07 12:26:24;;;;;;;3.17;1.17;;;7.30;99.90;;;;;;5041371;28;20215;-67
2022/12/07 12:29:05;;;;;;;8.57;1.67;;;7.20;99.90;;;;;;5060016;28;20654;-68
2022/12/07 12:31:39;;;;;;;3.97;1.40;;;7.20;99.90;;;;;;5059245;28;20204;-67
2022/12/07 12:34:58;;;;;;;9.83;2.67;;;7.20;99.90;;;;;;5058806;28;20228;-67
2022/12/07 12:37:34;;;;;;;11.97;2.40;;;7.20;99.90;;;;;;5023400;28;20212;-67
2022/12/07 12:40:16;;;;;;;6.57;1.67;;;7.20;99.90;;;;;;5059286;28;20255;-67
2022/12/07 12:42:52;;;;;;;6.23;2.30;;;7.10;99.90;;;;;;5053438;28;20233;-67
2022/12/07 12:45:29;;;;;;;6.30;1.90;;;7.10;99.90;;;;;;5059316;28;20208;-67
2022/12/07 12:47:59;;;;;;;5.67;1.30;;;7.20;99.90;;;;;;5055629;28;20203;-67
2022/12/07 12:50:27;;;;;;;3.53;1.73;;;7.20;99.90;;;;;;5060347;28;20211;-67
2022/12/07 12:52:57;;;;;;;5.17;1.57;;;7.30;99.90;;;;;;5061407;28;20198;-67
2022/12/07 12:55:42;;;;;;;3.20;1.50;;;7.40;99.90;;;;;;5042097;28;20284;-67
2022/12/07 12:58:17;;;;;;;6.97;2.10;;;7.50;99.90;;;;;;5058246;28;20269;-66
2022/12/07 13:00:46;;;;;;;9.03;2.20;;;7.60;99.90;;;;;;5057739;28;20635;-66
2022/12/07 13:03:27;;;;;;;8.50;1.90;;;7.60;99.90;;;;;;5057645;28;20736;-67
2022/12/07 13:06:31;;;;;;;6.33;3.00;;;7.70;99.90;;;;;;5059483;28;20201;-66
2022/12/07 13:08:59;;;;;;;6.83;1.67;;;7.70;99.90;;;;;;5056965;28;20243;-66
2022/12/07 13:11:41;;;;;;;4.47;2.30;;;7.80;99.90;;;;;;5060150;28;20232;-66
2022/12/07 13:14:46;;;;;;;4.87;1.57;;;7.80;99.90;;;;;;5057676;28;20230;-66
2022/12/07 13:17:32;;;;;;;8.77;2.10;;;7.80;99.90;;;;;;5059125;28;20254;-67
2022/12/07 13:20:04;;;;;;;9.13;1.93;;;7.80;99.90;;;;;;5059864;28;20326;-67
2022/12/07 13:22:30;;;;;;;5.47;1.57;;;7.80;99.90;;;;;;5063905;28;20253;-67
2022/12/07 13:25:28;;;;;;;3.07;1.40;;;7.80;99.90;;;;;;5042109;28;20272;-67